• Join FlightAware (Why Join?)
  • Login
  • US Flag 
12:41AM EDT


 

Airport Tracker/Info


-or-


 

Live Flight TrackerFlight Track Log ✈ EJA122 ✈ 25-Apr-2013 ✈ KPNE - KPVD

Flight Track Log - Related Links

Times and Time Zones

All times are in EDT time to prevent confusion due to time zone crossing. See the EJA122 flight status page for this flight to view local times or setup timezone preferences in your user account.

Time Position Orientation Groundspeed Altitude Reporting Facility
EDT Latitude Longitude Course Direction KTS MPH feet Rate Location/Type
02:06PM 40.0908 -75.0219 324° Northwest 152 175 1,000  Level FAA TRACON SMA TRACON (SMA)
02:07PM 40.1036 -75.0339 324° Northwest 214 246 1,900 2,820 Climbing FAA TRACON SMA TRACON (SMA)
02:07PM 40.1164 -75.0467 323° Northwest 196 226 2,900 2,820 Climbing FAA TRACON SMA TRACON (SMA)
02:07PM 40.1292 -75.0572 328° Northwest 185 213 3,800 2,820 Climbing FAA TRACON SMA TRACON (SMA)
02:08PM 40.1508 -75.0519 11° North 220 253 4,800 1,620 Climbing FAA TRACON SMA TRACON (SMA)
02:08PM 40.1656 -75.0353 41° Northeast 256 295 4,900 300 Climbing FAA TRACON SMA TRACON (SMA)
02:08PM 40.1725 -75.0092 71° East 254 292 5,000 120 Climbing FAA TRACON SMA TRACON (SMA)
02:09PM 40.1736 -74.9725 88° East 271 312 5,000  Level FAA TRACON SMA TRACON (SMA)
02:09PM 40.1750 -74.9414 87° East 275 316 5,000 120 Level FAA TRACON SMA TRACON (SMA)
02:09PM 40.1772 -74.9019 86° East 275 316 5,100 120 Climbing FAA TRACON SMA TRACON (SMA)
02:10PM 40.1794 -74.8711 85° East 276 318 5,100  Level FAA TRACON SMA TRACON (SMA)
02:10PM 40.1814 -74.8403 85° East 276 318 5,100  Level FAA TRACON SMA TRACON (SMA)
02:10PM 40.1833 -74.8108 85° East 277 319 5,100  Level FAA TRACON SMA TRACON (SMA)
02:11PM 40.1856 -74.7700 86° East 279 321 5,100  Level FAA TRACON SMA TRACON (SMA)
02:11PM 40.1875 -74.7389 85° East 279 321 5,100  Level FAA TRACON SMA TRACON (SMA)
02:11PM 40.1897 -74.7086 85° East 278 320 5,100  Level FAA TRACON SMA TRACON (SMA)
02:12PM 40.1794 -74.6703 109° East 290 334 5,100 -180 Level FAA TRACON SMA TRACON (SMA)
02:12PM 40.1739 -74.6436 105° East 288 331 5,000  Descending FAA TRACON SMA TRACON (SMA)
02:12PM 40.1633 -74.6031 109° East 280 322 5,100 120 Climbing FAA TRACON SMA TRACON (SMA)
02:13PM 40.1564 -74.5733 107° East 279 321 5,100  Level FAA TRACON SMA TRACON (SMA)
02:13PM 40.1492 -74.5436 108° East 279 321 5,100 300 Level FAA TRACON SMA TRACON (SMA)
02:13PM 40.1403 -74.5114 110° East 278 320 5,300 900 Climbing FAA TRACON SMA TRACON (SMA)
02:14PM 40.1344 -74.4797 104° East 280 322 5,700 1,200 Climbing FAA TRACON SMA TRACON (SMA)
02:14PM 40.1256 -74.4467 109° East 280 322 6,100 600 Climbing FAA TRACON SMA TRACON (SMA)
02:14PM 40.1172 -74.4114 107° East 284 327 6,100  Level FAA TRACON SMA TRACON (SMA)
02:15PM 40.1089 -74.3772 108° East 289 333 6,100  Level FAA TRACON SMA TRACON (SMA)
02:15PM 40.0958 -74.3228 107° East 291 335 6,100 -120 Level FAA TRACON SMA TRACON (SMA)
02:16PM 40.0714 -74.2267 108° East 290 334 6,000 660 Descending New York Center
02:17PM 40.0492 -74.1333 107° East 290 334 7,400 1,800 Climbing New York Center
02:18PM 40.0228 -74.0264 108° East 295 339 9,700 1,320 Climbing New York Center
02:19PM 39.9908 -73.8975 108° East 325 374 10,000 60 Climbing New York Center
02:20PM 39.9589 -73.7714 108° East 349 402 9,900 -60 Descending New York Center
02:21PM 39.9514 -73.6519 95° East 339 390 9,900 1,080 Level New York Center
02:23PM 40.0519 -73.4050 62° Northeast 349 402 13,400 1,560 Climbing Boston Center
02:24PM 40.1403 -73.3006 42° Northeast 383 441 14,900 720 Climbing Boston Center
02:25PM 40.2347 -73.1847 43° Northeast 425 489 14,900  Level Boston Center
02:26PM 40.3272 -73.0689 44° Northeast 443 510 14,900  Level Boston Center
02:27PM 40.4194 -72.9525 44° Northeast 449 517 14,900  Level Boston Center
02:28PM 40.5136 -72.8331 44° Northeast 454 522 14,900  Level Boston Center
02:29PM 40.6036 -72.7161 45° Northeast 454 522 14,900  Level Boston Center
02:30PM 40.6853 -72.5658 54° Northeast 454 522 14,900 -420 Level Boston Center
02:32PM 40.7708 -72.4017 55° Northeast 454 522 14,000 -1,140 Descending Boston Center
02:33PM 40.8436 -72.2756 53° Northeast 444 511 12,400 -1,560 Descending Boston Center
02:33PM 40.8850 -72.2122 49° Northeast 434 499 11,400 -1,200 Descending Boston Center
02:34PM 40.9142 -72.1572 55° Northeast 421 484 11,000 -420 Descending Boston Center
02:34PM 40.9536 -72.0967 49° Northeast 417 480 11,000 -120 Level Boston Center
02:35PM 40.9806 -72.0414 57° Northeast 406 467 10,900  Descending Boston Center
02:35PM 41.0178 -71.9806 51° Northeast 399 459 11,000 60 Climbing Boston Center
02:36PM 41.0592 -71.9061 54° Northeast 395 455 11,000 -120 Level Boston Center
02:36PM 41.0839 -71.8756 43° Northeast 395 455 10,900 -1,260 Descending Boston Center
02:37PM 41.1689 -71.7947 36° Northeast 339 390 9,100 -1,800 Descending Boston Center
02:38PM 41.2269 -71.7364 37° Northeast 306 352 7,500 -1,920 Descending Boston Center
02:39PM 41.2975 -71.6692 36° Northeast 289 333 5,500 -1,260 Descending Boston Center
02:40PM 41.3533 -71.6161 35° Northeast 263 303 5,000 -300 Descending Boston Center
02:41PM 41.4153 -71.5600 34° Northeast 258 297 5,000 -600 Level Boston Center
02:43PM 41.5185 -71.5161 North  Level Estimated
02:43PM 41.5292 -71.4503 North 258 297 3,200  Level Boston Center
02:44PM 41.5869 -71.3964 35° Northeast 255 293 3,100 -420 Descending Boston Center
02:45PM 41.6367 -71.3514 34° Northeast 218 251 2,400 -1,020 Descending Boston Center
02:46PM 41.6742 -71.3756 334° Northwest 157 181 1,100 -720 Descending Boston Center
02:47PM 41.6933 -71.3947 323° Northwest 155 178 1,000 -60 Descending Boston Center
02:48PM 41.6933 -71.3947 334° Northwest 155 178 1,000  Level Boston Center